Weather at Kumköy Blue Sky Airport

Public forecast

Using degrees Celsius for public forecast. Weather courtesy of forecast.io.

Closest aviation weather report (METAR) to Kumköy Blue Sky Airport

Closest report is Antalya International Airport, 27.9 nm (51.6 km) WNW. Retrieved 2022/01/21 19:50 UTC (33 minutes ago):

LTAI 211950Z 06003KT 9999 -SHRA BKN030 08/06 Q1022 NOSIG RMK RWY18C 08004KT 050V110 RWY36R 06003KT RWY18L 07001KT

Closest aviation forecast (TAF) to Kumköy Blue Sky Airport

Closest forecast is Antalya International Airport, 27.9 nm (51.6 km) WNW. Retrieved 2022/01/21 18:03 UTC (2 hours ago):

TAF LTAI 211640Z 2118/2218 VRB02KT 9999 BKN030 BECMG 2118/2121 -SHRA BECMG 2212/2215 SCT030